createdAt,value
2017-05-26T00:02:19.828Z,9.02
2017-05-26T00:04:48.681Z,9.72
2017-05-26T00:07:17.568Z,10.17
2017-05-26T00:09:46.429Z,9.47
2017-05-26T00:12:15.285Z,9.87
2017-05-26T00:14:44.190Z,9.08
2017-05-26T00:17:13.033Z,10.25
2017-05-26T00:19:41.109Z,8.77
2017-05-26T00:22:10.117Z,9.08
2017-05-26T00:24:38.966Z,9.17
2017-05-26T00:27:07.813Z,9.25
2017-05-26T00:29:36.702Z,9.35
2017-05-26T00:32:05.557Z,11.75
2017-05-26T00:34:34.411Z,9.32
2017-05-26T00:37:02.533Z,9.05
2017-05-26T00:39:31.382Z,8.30
2017-05-26T00:42:00.249Z,10.73
2017-05-26T00:44:29.256Z,8.40
2017-05-26T00:46:58.111Z,8.98
2017-05-26T00:49:26.956Z,9.13
2017-05-26T00:51:55.845Z,9.75
2017-05-26T00:54:24.695Z,9.78
2017-05-26T00:56:53.538Z,9.45
2017-05-26T00:59:21.665Z,9.80
2017-05-26T01:01:50.512Z,9.67
2017-05-26T01:04:19.378Z,15.32
2017-05-26T01:06:47.593Z,9.37
2017-05-26T01:09:16.461Z,9.82
2017-05-26T01:11:45.305Z,9.33
2017-05-26T01:14:14.303Z,10.45
2017-05-26T01:16:43.150Z,9.43
2017-05-26T01:19:11.225Z,10.48
2017-05-26T01:21:40.117Z,11.00
2017-05-26T01:24:08.188Z,9.47
2017-05-26T01:26:37.037Z,9.68
2017-05-26T01:29:05.940Z,10.52
2017-05-26T01:31:34.785Z,9.93
2017-05-26T01:34:03.640Z,12.28
2017-05-26T01:36:32.637Z,10.13
2017-05-26T01:39:01.486Z,10.98
2017-05-26T01:41:30.330Z,9.63
2017-05-26T01:43:59.235Z,9.97
2017-05-26T01:46:28.081Z,10.42
2017-05-26T01:48:56.930Z,10.52
2017-05-26T01:51:25.814Z,9.50
2017-05-26T01:53:54.668Z,11.03
2017-05-26T01:56:23.518Z,10.97
2017-05-26T01:58:52.526Z,10.57
2017-05-26T02:01:21.385Z,10.53
2017-05-26T02:03:50.253Z,10.97
2017-05-26T02:06:19.133Z,10.67
2017-05-26T02:08:48.001Z,10.23
2017-05-26T02:11:16.870Z,10.20
2017-05-26T02:13:45.747Z,9.48
2017-05-26T02:16:14.597Z,10.67
2017-05-26T02:18:43.448Z,9.40
2017-05-26T02:21:12.463Z,9.57
2017-05-26T02:23:41.326Z,9.78
2017-05-26T02:26:10.175Z,10.05
2017-05-26T02:28:38.289Z,10.53
2017-05-26T02:31:07.153Z,11.18
2017-05-26T02:33:36.009Z,10.75
2017-05-26T02:36:04.138Z,10.43
2017-05-26T02:38:32.988Z,10.35
2017-05-26T02:41:01.834Z,10.22
2017-05-26T02:43:30.835Z,9.92
2017-05-26T02:45:59.698Z,10.02
2017-05-26T02:48:27.774Z,11.02
2017-05-26T02:50:56.658Z,10.72
2017-05-26T02:53:24.740Z,9.77
2017-05-26T02:55:53.609Z,11.93
2017-05-26T02:58:22.502Z,10.80
2017-05-26T03:00:50.601Z,10.12
2017-05-26T03:03:18.690Z,10.18
2017-05-26T03:05:46.930Z,10.82
2017-05-26T03:08:15.816Z,11.28
2017-05-26T03:10:44.664Z,10.08
2017-05-26T03:13:13.554Z,11.40
2017-05-26T03:15:42.410Z,10.05
2017-05-26T03:18:10.497Z,10.95
2017-05-26T03:20:39.378Z,9.33
2017-05-26T03:23:08.237Z,17.25
2017-05-26T03:25:37.090Z,10.63
2017-05-26T03:28:06.000Z,9.77
2017-05-26T03:30:34.847Z,10.22
2017-05-26T03:33:03.709Z,9.68
2017-05-26T03:35:32.610Z,10.42
2017-05-26T03:38:01.469Z,10.92
2017-05-26T03:40:30.333Z,9.92
2017-05-26T03:42:58.461Z,10.15
2017-05-26T03:45:27.298Z,9.48
2017-05-26T03:47:56.155Z,9.93
2017-05-26T03:50:25.169Z,9.47
2017-05-26T03:52:53.246Z,10.50
2017-05-26T03:55:22.105Z,9.35
2017-05-26T03:57:50.974Z,9.65
2017-05-26T04:00:19.061Z,11.73
2017-05-26T04:02:47.153Z,10.20
2017-05-26T04:05:16.059Z,9.65
2017-05-26T04:07:44.933Z,8.98
2017-05-26T04:10:13.786Z,9.78
2017-05-26T04:12:42.795Z,13.67
2017-05-26T04:15:10.885Z,11.43
2017-05-26T04:17:39.757Z,11.18
2017-05-26T04:20:08.648Z,11.18
2017-05-26T04:22:37.509Z,11.97
2017-05-26T04:25:06.377Z,12.20
2017-05-26T04:27:34.493Z,13.12
2017-05-26T04:30:03.349Z,12.40
2017-05-26T04:32:32.217Z,11.98
2017-05-26T04:35:00.461Z,11.90
2017-05-26T04:37:29.306Z,11.38
2017-05-26T04:39:58.153Z,9.83
2017-05-26T04:42:27.034Z,10.70
2017-05-26T04:44:55.881Z,12.77
2017-05-26T04:47:24.733Z,9.68
2017-05-26T04:49:53.617Z,9.53
2017-05-26T04:52:22.464Z,10.85
2017-05-26T04:54:51.315Z,9.63
2017-05-26T04:57:20.252Z,11.80
2017-05-26T04:59:48.348Z,10.92
2017-05-26T05:02:17.201Z,10.45
2017-05-26T05:04:46.094Z,10.50
2017-05-26T05:07:14.958Z,12.80
2017-05-26T05:09:43.826Z,11.48
2017-05-26T05:12:12.717Z,11.73
2017-05-26T05:14:41.585Z,13.10
2017-05-26T05:17:10.432Z,14.67
2017-05-26T05:19:39.358Z,11.80
2017-05-26T05:22:08.217Z,14.63
2017-05-26T05:24:37.089Z,12.23
2017-05-26T05:27:05.981Z,12.67
2017-05-26T05:29:34.837Z,11.50
2017-05-26T05:32:03.706Z,12.28
2017-05-26T05:34:33.457Z,11.33
2017-05-26T05:37:02.312Z,12.07
2017-05-26T05:39:31.177Z,15.27
2017-05-26T05:41:59.298Z,12.22
2017-05-26T05:44:28.171Z,12.48
2017-05-26T05:46:57.038Z,11.47
2017-05-26T05:49:25.934Z,12.75
2017-05-26T05:51:54.807Z,15.22
2017-05-26T05:54:24.310Z,11.88
2017-05-26T05:56:53.234Z,10.15
2017-05-26T05:59:22.090Z,10.43
2017-05-26T12:04:55.529Z,3.06
2017-05-26T12:07:24.485Z,2.64
2017-05-26T12:09:53.370Z,2.72
2017-05-26T12:12:22.220Z,2.10
2017-05-26T12:14:51.062Z,2.24
2017-05-26T12:17:20.010Z,2.94
2017-05-26T12:19:48.871Z,2.54
2017-05-26T12:22:17.716Z,2.36
2017-05-26T12:24:46.623Z,2.48
2017-05-26T12:27:15.480Z,2.92
2017-05-26T12:29:44.341Z,2.74
2017-05-26T12:32:13.270Z,3.64
2017-05-26T12:34:42.132Z,3.20
2017-05-26T12:37:10.996Z,2.14
2017-05-26T12:39:47.112Z,2.24
2017-05-26T12:42:17.695Z,2.84
2017-05-26T12:44:47.778Z,2.44
2017-05-26T12:47:16.628Z,4.68
2017-05-26T12:49:45.476Z,2.30
2017-05-26T12:52:15.632Z,2.64
2017-05-26T12:54:44.433Z,2.06
2017-05-26T12:57:13.252Z,2.36
2017-05-26T12:59:42.176Z,3.70
2017-05-26T13:02:11.052Z,2.22
2017-05-26T13:04:39.135Z,4.12
2017-05-26T13:07:08.028Z,2.64
2017-05-26T13:09:36.882Z,2.44
2017-05-26T13:12:05.725Z,2.30
2017-05-26T13:14:34.621Z,2.66
2017-05-26T13:17:03.471Z,2.34
2017-05-26T13:19:32.325Z,2.28
2017-05-26T13:22:01.236Z,2.24
2017-05-26T13:24:30.099Z,2.10
2017-05-26T13:26:58.948Z,3.00
2017-05-26T13:29:28.996Z,2.36
2017-05-26T13:31:57.857Z,2.48
2017-05-26T13:34:26.728Z,2.36
2017-05-26T13:36:55.617Z,2.46
2017-05-26T13:39:24.456Z,4.12
2017-05-26T13:41:53.320Z,3.02
2017-05-26T13:44:22.333Z,2.28
2017-05-26T13:46:51.190Z,1.84
2017-05-26T13:49:20.037Z,2.70
2017-05-26T13:51:48.927Z,2.90
2017-05-26T13:54:17.794Z,2.16
2017-05-26T13:56:46.643Z,2.20
2017-05-26T13:59:15.537Z,2.48
2017-05-26T14:01:44.395Z,4.30
2017-05-26T14:04:13.246Z,2.42
2017-05-26T14:06:42.261Z,2.50
2017-05-26T14:09:11.642Z,2.32
2017-05-26T14:11:40.478Z,2.26
2017-05-26T14:14:09.365Z,2.68
2017-05-26T14:16:38.229Z,2.02
2017-05-26T14:19:07.087Z,2.74
2017-05-26T14:21:35.961Z,3.70
2017-05-26T14:24:04.814Z,4.10
2017-05-26T14:26:33.668Z,2.52
2017-05-26T14:29:06.318Z,2.22
2017-05-26T14:31:35.166Z,2.10
2017-05-26T14:34:04.031Z,2.40
2017-05-26T14:36:32.925Z,9.42
2017-05-26T14:39:01.784Z,2.74
2017-05-26T14:41:30.650Z,2.94
2017-05-26T14:43:59.541Z,2.40
2017-05-26T14:46:28.394Z,2.44
2017-05-26T14:48:57.234Z,1.88
2017-05-26T14:51:27.865Z,2.92
2017-05-26T14:53:56.732Z,2.44
2017-05-26T14:56:25.611Z,2.12
2017-05-26T14:58:55.811Z,2.20
2017-05-26T15:01:24.660Z,2.82
2017-05-26T15:03:53.500Z,2.32
2017-05-26T15:06:22.391Z,1.84
2017-05-26T15:08:51.275Z,2.58
2017-05-26T15:11:20.131Z,6.02
2017-05-26T15:13:49.114Z,2.16
2017-05-26T15:16:17.965Z,2.22
2017-05-26T15:18:46.829Z,2.46
2017-05-26T15:21:15.742Z,2.10
2017-05-26T15:23:44.603Z,2.30
2017-05-26T15:26:13.453Z,4.64
2017-05-26T15:28:42.352Z,2.40
2017-05-26T15:31:11.201Z,4.22
2017-05-26T15:33:40.062Z,2.44
2017-05-26T15:36:08.945Z,2.88
2017-05-26T15:38:37.796Z,5.10
2017-05-26T15:41:06.653Z,4.48
2017-05-26T15:43:42.622Z,3.24
2017-05-26T15:46:18.633Z,3.74
2017-05-26T15:48:55.237Z,2.70
2017-05-26T15:51:24.178Z,3.02
2017-05-26T15:53:53.064Z,2.40
2017-05-26T15:56:21.955Z,3.52
2017-05-26T15:58:50.802Z,2.40
2017-05-26T16:01:19.661Z,3.20
2017-05-26T16:03:56.235Z,3.30
2017-05-26T16:06:32.185Z,2.42
2017-05-26T16:09:01.205Z,2.90
2017-05-26T16:11:30.070Z,2.14
2017-05-26T16:13:58.916Z,2.14
2017-05-26T16:16:27.813Z,2.44
2017-05-26T16:18:56.688Z,2.92
2017-05-26T16:21:24.761Z,3.16
2017-05-26T16:23:55.405Z,2.30
2017-05-26T16:26:24.236Z,2.94
2017-05-26T16:28:53.095Z,2.62
2017-05-26T16:31:23.314Z,2.42
2017-05-26T16:33:51.416Z,3.20
2017-05-26T16:36:20.269Z,6.78
2017-05-26T16:38:49.163Z,2.60
2017-05-26T16:41:17.245Z,2.82
2017-05-26T16:43:46.097Z,2.48
2017-05-26T16:46:15.104Z,4.70
2017-05-26T16:48:43.962Z,2.78
2017-05-26T16:51:12.816Z,4.44
2017-05-26T16:53:41.693Z,2.44
2017-05-26T16:56:10.545Z,4.14
2017-05-26T16:58:39.394Z,13.00
2017-05-26T17:01:08.308Z,9.48
2017-05-26T17:03:37.154Z,5.14
2017-05-26T17:06:06.012Z,3.68
2017-05-26T17:08:57.150Z,2.82
2017-05-26T17:11:28.545Z,2.92
2017-05-26T17:13:57.433Z,2.62
2017-05-26T17:16:26.280Z,2.72
2017-05-26T17:18:55.136Z,2.70
2017-05-26T17:21:24.037Z,3.60
2017-05-26T17:23:52.882Z,3.04
2017-05-26T17:26:21.729Z,3.34
2017-05-26T17:28:58.461Z,2.78
2017-05-26T17:31:27.400Z,4.34
2017-05-26T17:33:56.294Z,2.92
2017-05-26T17:36:25.136Z,3.44
2017-05-26T17:38:53.994Z,3.28
2017-05-26T17:41:22.874Z,4.58
2017-05-26T17:43:51.721Z,3.80
2017-05-26T17:46:20.583Z,3.70
2017-05-26T17:48:56.977Z,4.04
2017-05-26T17:51:25.925Z,3.70
2017-05-26T17:53:54.825Z,3.58
2017-05-26T17:56:23.702Z,5.62
2017-05-26T17:58:51.789Z,3.28
2017-05-26T18:01:20.660Z,3.72
2017-05-26T18:03:53.063Z,3.46
2017-05-26T18:06:21.949Z,4.30
2017-05-26T18:08:53.258Z,3.44
2017-05-26T18:11:22.260Z,3.42
2017-05-26T18:13:51.118Z,5.74
2017-05-26T18:16:22.950Z,5.34
2017-05-26T18:18:51.806Z,4.12
2017-05-26T18:21:20.656Z,3.96
2017-05-26T18:23:49.528Z,4.18
2017-05-26T18:26:18.418Z,3.70
2017-05-26T18:28:47.279Z,4.32
2017-05-26T18:31:16.134Z,3.52
2017-05-26T18:33:52.494Z,3.68
2017-05-26T18:36:28.767Z,3.30
2017-05-26T18:38:57.741Z,3.54
2017-05-26T18:41:26.625Z,3.62
2017-05-26T18:43:55.473Z,4.28
2017-05-26T18:46:24.397Z,4.64
2017-05-26T18:48:53.236Z,4.00
2017-05-26T18:51:22.103Z,3.98
2017-05-26T18:53:51.804Z,3.96
2017-05-26T18:56:20.696Z,3.86
2017-05-26T18:58:49.542Z,6.12
2017-05-26T19:01:18.420Z,3.54
2017-05-26T19:03:47.262Z,3.96
2017-05-26T19:06:16.126Z,4.52
2017-05-26T19:09:07.446Z,3.90
2017-05-26T19:11:36.393Z,3.88
2017-05-26T19:14:05.282Z,3.90
2017-05-26T19:16:34.139Z,5.36
2017-05-26T19:19:02.992Z,4.10
2017-05-26T19:21:31.871Z,4.46
2017-05-26T19:24:00.751Z,4.20
2017-05-26T19:26:29.581Z,5.58
2017-05-26T19:28:58.506Z,4.60
2017-05-26T19:31:27.359Z,5.68
2017-05-26T19:33:56.230Z,5.28
2017-05-26T19:36:25.125Z,4.70
2017-05-26T19:38:54.006Z,3.84
2017-05-26T19:41:22.874Z,5.16
2017-05-26T19:43:51.774Z,3.54
2017-05-26T19:46:20.650Z,3.84
2017-05-26T19:48:49.525Z,4.58
2017-05-26T19:51:19.311Z,4.58
2017-05-26T19:53:48.171Z,3.62
2017-05-26T19:56:17.128Z,4.66
2017-05-26T19:58:45.292Z,4.60
2017-05-26T20:01:14.167Z,4.48
2017-05-26T20:03:42.296Z,5.44
2017-05-26T20:06:11.219Z,4.66
2017-05-26T20:08:55.047Z,5.34
2017-05-26T20:11:24.048Z,4.18
2017-05-26T20:13:52.891Z,4.06
2017-05-26T20:16:21.759Z,4.76
2017-05-26T20:18:50.637Z,4.72
2017-05-26T20:21:19.499Z,4.44
2017-05-26T20:23:48.381Z,4.32
2017-05-26T20:26:17.320Z,4.70
2017-05-26T20:28:46.153Z,4.80
2017-05-26T20:31:15.026Z,4.74
2017-05-26T20:33:43.190Z,4.54
2017-05-26T20:36:12.036Z,5.08
2017-05-26T20:38:40.142Z,5.50
2017-05-26T20:41:09.039Z,5.00
2017-05-26T20:43:37.903Z,5.46
2017-05-26T20:46:06.780Z,4.82
2017-05-26T20:48:35.678Z,4.86
2017-05-26T20:51:04.521Z,5.72
2017-05-26T20:53:33.365Z,5.28
2017-05-26T20:56:02.392Z,5.80
2017-05-26T20:58:31.235Z,5.42
2017-05-26T21:00:59.328Z,5.54
2017-05-26T21:03:28.193Z,6.08
2017-05-26T21:05:57.046Z,6.48
2017-05-26T21:08:25.897Z,5.72
2017-05-26T21:11:16.837Z,6.08
2017-05-26T21:14:00.537Z,5.26
2017-05-26T21:16:29.438Z,6.22
2017-05-26T21:18:58.299Z,6.22
2017-05-26T21:21:27.162Z,7.40
2017-05-26T21:23:56.039Z,7.64
2017-05-26T21:26:24.920Z,10.04
2017-05-26T21:28:53.777Z,6.86
2017-05-26T21:31:23.515Z,6.50
2017-05-26T21:33:52.374Z,6.34
2017-05-26T21:36:21.225Z,5.42
2017-05-26T21:38:51.370Z,6.70
2017-05-26T21:41:20.233Z,9.04
2017-05-26T21:43:49.069Z,6.46
2017-05-26T21:46:18.082Z,8.14
2017-05-26T21:48:46.947Z,6.36
2017-05-26T21:51:15.789Z,5.52
2017-05-26T21:53:44.689Z,6.04
2017-05-26T21:56:13.548Z,5.72
2017-05-26T21:58:42.405Z,5.62
2017-05-26T22:01:18.584Z,7.96
2017-05-26T22:03:47.532Z,6.10
2017-05-26T22:06:16.406Z,6.22
2017-05-26T22:08:45.305Z,6.50
2017-05-26T22:11:14.170Z,7.94
2017-05-26T22:13:43.030Z,6.98
2017-05-26T22:16:15.595Z,6.66
2017-05-26T22:18:44.435Z,7.04
2017-05-26T22:21:13.294Z,6.24
2017-05-26T22:23:42.177Z,6.26
2017-05-26T22:26:11.032Z,5.90
2017-05-26T22:28:39.886Z,6.96
2017-05-26T22:31:08.771Z,7.48
2017-05-26T22:33:37.617Z,6.42
2017-05-26T22:36:06.470Z,6.72
2017-05-26T22:38:36.241Z,8.60
2017-05-26T22:41:05.096Z,6.04
2017-05-26T22:43:33.943Z,6.98
2017-05-26T22:46:02.840Z,5.92
2017-05-26T22:48:31.686Z,5.98
2017-05-26T22:51:00.528Z,6.38
2017-05-26T22:53:29.411Z,6.58
2017-05-26T22:55:58.279Z,5.92
2017-05-26T22:58:27.130Z,7.26
2017-05-26T23:01:03.322Z,6.16
2017-05-26T23:03:32.279Z,6.08
2017-05-26T23:06:01.177Z,6.36
2017-05-26T23:08:29.284Z,6.68
2017-05-26T23:10:58.129Z,6.58
2017-05-26T23:13:27.022Z,6.92
2017-05-26T23:15:55.870Z,8.08
2017-05-26T23:18:24.725Z,7.20
2017-05-26T23:20:53.728Z,7.02
2017-05-26T23:23:21.814Z,7.42
2017-05-26T23:25:50.669Z,6.70
2017-05-26T23:28:19.553Z,9.22
2017-05-26T23:30:48.400Z,6.46
2017-05-26T23:33:17.249Z,6.22
2017-05-26T23:35:46.132Z,6.36
2017-05-26T23:38:14.985Z,6.56
2017-05-26T23:40:43.844Z,8.16
2017-05-26T23:43:14.578Z,6.84
2017-05-26T23:45:42.653Z,6.96
2017-05-26T23:48:10.758Z,7.68
2017-05-26T23:50:39.629Z,7.26
2017-05-26T23:53:08.481Z,6.44
2017-05-26T23:55:37.344Z,6.58
2017-05-26T23:58:06.244Z,6.33
